createdAt,value
2019-02-28T06:19:09.120Z,45.3
2019-02-28T06:29:12.686Z,40.8
2019-02-28T11:02:21.822Z,43.4
2019-02-28T11:12:25.327Z,43.4
2019-02-28T11:22:28.828Z,43.7
2019-02-28T11:32:32.352Z,43.9
2019-02-28T11:42:35.842Z,43.8
2019-02-28T11:52:39.349Z,40.8
2019-02-28T12:02:42.835Z,40.3
2019-02-28T12:12:46.374Z,39.2
2019-02-28T12:22:50.174Z,39.5
2019-02-28T12:32:53.700Z,40
2019-02-28T12:42:57.226Z,41.6
2019-02-28T12:53:00.757Z,42.5
2019-02-28T13:03:04.310Z,43.1
2019-02-28T13:13:08.301Z,42.4
2019-02-28T13:23:11.863Z,42
2019-02-28T13:33:16.344Z,41.6
2019-02-28T13:43:22.971Z,42.4
2019-02-28T13:53:31.579Z,43
2019-02-28T14:03:35.457Z,43.1
2019-02-28T14:13:39.441Z,43.6
2019-02-28T14:23:42.968Z,44
2019-02-28T14:33:46.455Z,43.3
2019-02-28T14:43:55.965Z,43.7
2019-02-28T14:54:00.397Z,44
2019-02-28T15:04:03.910Z,44.3
2019-02-28T15:14:09.832Z,44.4
2019-02-28T15:24:13.367Z,44.7
2019-02-28T15:34:16.863Z,44.4
2019-02-28T15:44:20.405Z,44.7
2019-02-28T15:54:26.331Z,45
2019-02-28T16:04:29.850Z,45.4
2019-02-28T16:14:35.832Z,39.4
2019-02-28T16:24:40.648Z,38.9
2019-02-28T16:34:44.240Z,41.4
2019-02-28T16:44:47.783Z,41.1
2019-02-28T16:54:57.022Z,41.3
2019-02-28T17:05:00.569Z,41.3
2019-02-28T17:15:04.052Z,42.2
2019-02-28T17:25:07.579Z,42.4
2019-02-28T17:35:11.078Z,42.5
2019-02-28T17:45:16.540Z,42.8
2019-02-28T17:55:20.101Z,42.7
2019-02-28T18:05:33.545Z,43.1
2019-02-28T18:15:45.881Z,43.1
2019-02-28T18:25:53.432Z,43.2
2019-02-28T18:35:57.015Z,43.2
2019-02-28T18:46:00.513Z,43.3
2019-02-28T18:56:04.011Z,43.3
2019-02-28T19:06:07.542Z,43.2
2019-02-28T19:16:11.028Z,43.1
2019-02-28T19:26:14.558Z,43.2
2019-02-28T19:36:18.095Z,43.2
2019-02-28T19:46:21.599Z,43.2
2019-02-28T19:56:25.094Z,43.2
2019-02-28T20:06:28.607Z,43.1
2019-02-28T20:16:32.090Z,43.1
2019-02-28T20:26:35.602Z,43.2
2019-02-28T20:36:39.131Z,43
2019-02-28T20:46:42.634Z,42.9
2019-02-28T20:56:46.139Z,42.9
2019-02-28T21:06:49.643Z,42.9
2019-02-28T21:16:53.145Z,42.9
2019-02-28T21:26:56.676Z,42.9
2019-02-28T21:37:00.165Z,42.9
2019-02-28T21:47:03.743Z,42.7
2019-02-28T21:57:07.282Z,42.8
2019-02-28T22:07:10.817Z,42.8
2019-02-28T22:17:14.306Z,42.6
2019-02-28T22:27:17.819Z,42.5
2019-02-28T22:37:21.335Z,42.5
2019-02-28T22:47:24.822Z,42.5
2019-02-28T22:57:28.314Z,42.5
2019-02-28T23:07:31.826Z,42.4
2019-02-28T23:17:35.303Z,42.4
2019-02-28T23:27:38.814Z,42.3
2019-02-28T23:37:42.333Z,42.2
2019-02-28T23:47:45.837Z,42.2
2019-02-28T23:57:49.365Z,42
